GCHI/VDE METAR and TAF weather

Enter ICAO airport designator
Station Type Date Time Source
GCHI METAR 2020/02/16 20:00 UTC NOAA

GCHI 162000Z AUTO 01011G21KT 340V040 9999 SCT019 19/15 Q1025


Station Type Date Time Source
GCHI Decoded METAR 2020/02/16 20:00 UTC NOAA

Hierro / Aeropuerto, Spain (GCHI) 27-49N 017-53W 32M
Feb 16, 2020 - 03:00 PM EST / 2020.02.16 2000 UTC
Wind: from the N (010 degrees) at 13 MPH (11 KT) gusting to 24 MPH (21 KT) (direction variable):0
Visibility: greater than 7 mile(s):0
Sky conditions: partly cloudy
Temperature: 66 F (19 C)
Dew Point: 59 F (15 C)
Relative Humidity: 77%
Pressure (altimeter): 30.27 in. Hg (1025 hPa)
ob: GCHI 162000Z AUTO 01011G21KT 340V040 9999 SCT019 19/15 Q1025
cycle: 20

Station Type Date Time Source
GCHI TAF 2020/02/16 15:00 UTC NOAA

TAF GCHI 161400Z 1615/1715 35011KT 9999 SCT018 TX22/1615Z TN18/1706Z PROB30
TEMPO 1621/1706 BKN008

Example: see airport list